Tiempo atmosférico en la estación meteorológica de Aguilar De Campoo, Palencia (910 m.)



Fecha
DESCASC
Temp. máxima en grados centígrados (hora)
DESCASC
Temp. mínima en grados centígrados (hora)
DESCASC
Temp. media en grados centígrados
DESCASC
Racha de viento máxima en m/sg (hora)
DESCASC
Velocidad máxima media en intervalos de 10 minutos(hora)
DESCASC
Precipitaciones diarias en mm
DESCASC
Precipitaciones de 00:00 a 06:00 en mm
DESCASC
Precipitaciones de 06:00 a 12:00 en mm
DESCASC
Precipitaciones de 12:00 a 18:00 en mm
DESCASC
Precipitaciones de 18:00 a 24:00 en mm
DESCASC
28-02-2021 7 (15:10) -3.4 (07:40) 1.8 8.06 (15:40) 4.72 (13:30) 0 0 0 0 0
27-02-2021 11.6 (16:30) 2.2 (23:59) 6.9 10.28 (11:40) 6.39 (14:30) 0 0 0 0 0
26-02-2021 10.3 (15:30) 6.4 (02:50) 8.4 9.72 (14:10) 5.56 (14:10) 0 0 0 0 0
25-02-2021 11.7 (15:10) 1.3 (00:00) 6.5 6.39 (23:30) 3.89 (23:50) 0 0 0 0 0
24-02-2021 14 (16:30) -0.7 (-00:0) 6.7 13.89 (16:30) 6.11 (13:40) 0 0 0 0 0
23-02-2021 12 (15:50) -2.1 (-00:0) 5 10 (12:30) 4.72 (12:30) 0 0 0 0 0
22-02-2021 10.2 (15:50) 0 (00:00) 5.1 7.22 (17:10) 3.89 (17:10) 2.8 2.8 0 0 0
21-02-2021 10.3 (13:00) 2.4 (00:00) 6.4 10 (06:20) 5.28 (06:40) 12.4 0 0 1 11.4
20-02-2021 12.4 (14:10) 3.6 (00:00) 8 17.22 (13:00) 8.06 (12:40) 0 0 0 0 0
19-02-2021 13.5 (15:40) 2.8 (00:00) 8.1 13.33 (16:20) 6.11 (14:10) 2.8 2.6 0.2 0 0
18-02-2021 11.1 (16:10) 6.5 (00:00) 8.8 13.61 (05:40) 6.11 (05:00) 2.2 0 0.6 0.6 1
17-02-2021 11.6 (16:40) 5 (00:00) 8.3 10 (14:20) 5 (16:40) 0 0 0 0 0
16-02-2021 10.2 (11:50) 1.1 (00:00) 5.6 11.94 (11:40) 6.67 (11:50) 1 0 0 0.8 0.2
15-02-2021 12.7 (16:40) 1.8 (00:00) 7.2 9.17 (23:40) 4.44 (23:30) 0 0 0 0 0
14-02-2021 11 (15:40) -0.9 (-00:0) 5.1 8.89 (15:40) 4.44 (15:20) 0 0 0 0 0
13-02-2021 11.3 (16:00) 1.9 (00:00) 6.6 5.56 (15:30) 3.06 (16:00) 0 0 0 0 0
12-02-2021 11.8 (16:30) 1.9 (00:00) 6.9 12.22 (03:10) 5.56 (08:30) 3.4 3.2 0.2 0 0
11-02-2021 10.9 (15:50) 4.7 (00:00) 7.8 10.28 (23:40) 6.11 (07:50) 0.2 0 0 0 0.2
10-02-2021 9.9 (17:00) 0.5 (00:00) 5.2 8.89 (15:30) 4.72 (01:10) 1.8 1.6 0.2 0 0
09-02-2021 5.9 (15:40) 2.8 (00:00) 4.4 16.94 (12:20) 7.22 (13:30) 13 1.2 9.4 2.2 0.2
08-02-2021 8 (14:10) 2.7 (00:00) 5.4 11.39 (10:30) 6.39 (10:40) 2.4 2.2 0.2 0 0
07-02-2021 4.7 (14:30) -4.6 (-00:0) 0 10.28 (17:10) 6.11 (15:50) 0.6 0 0 0 0.6
06-02-2021 6.6 (00:00) 0.3 (00:00) 3.4 6.11 (18:40) 3.61 (19:10) 8 7.4 0.4 0.2 0
05-02-2021 9.8 (15:10) 4.1 (00:00) 7 9.17 (16:30) 5.56 (16:30) 6.8 2.4 3.8 0.2 0.4
04-02-2021 7.5 (11:40) 3.3 (00:00) 5.4 9.17 (02:50) 3.61 (02:50) 17 0 0 16.2 0.8
03-02-2021 11.6 (14:20) 7.1 (00:00) 9.4 14.44 (00:20) 6.67 (00:40) 3.2 1.2 2 0 0
02-02-2021 9.1 (00:00) 8 (22:40) 8.6 15.83 (22:10) 8.06 (02:10) 3.6 0.2 0 2.6 0.8
01-02-2021 14.9 (12:50) 3.8 (00:00) 9.3 15.28 (00:20) 10.28 (00:30) 0 0 0 0 0

Gráficas

Temp. máximas Temp. mínimas Temp. medias Precipitaciones Rachas de viento máximas Velocidades máximas media en intervalos de 10 minutos

Datos horarios

Fecha y hora oficial Temperatura (ºC) Velocidad del viento (km/h) Dirección del viento Racha (km/h) Dirección de racha Precipitación (mm) Presión (hPa) Tendencia (hPa) Humedad (%)
2021-03-02 23:00:00 7.4 4 Sudoeste 17 Sur 0.2 -- -- 92
2021-03-02 22:00:00 8.1 7 Sur 14 Sur 0 -- -- 89
2021-03-02 21:00:00 7.8 5 Este 11 Nordeste 0 -- -- 89
2021-03-02 20:00:00 8.5 5 Norte 10 Norte 0 -- -- 84
2021-03-02 19:00:00 10.2 6 Norte 13 Norte 0 -- -- 79
2021-03-02 18:00:00 10.3 11 Norte 23 Noroeste 0 -- -- 78
2021-03-02 17:00:00 11.8 12 Noroeste 28 Oeste 0 -- -- 70
2021-03-02 16:00:00 12.7 9 Norte 29 Norte 0 -- -- 69
2021-03-02 15:00:00 11.3 12 Noroeste 24 Oeste 0 -- -- 76
2021-03-02 14:00:00 11 12 Noroeste 28 Noroeste 0 -- -- 76
2021-03-02 13:00:00 10 13 Noroeste 22 Noroeste 0 -- -- 80
2021-03-02 12:00:00 8.4 12 Oeste 31 Oeste 0 -- -- 82
2021-03-02 11:00:00 7.9 17 Oeste 27 Noroeste 0 -- -- 83
2021-03-02 10:00:00 7.2 9 Oeste 25 Oeste 0 -- -- 86
2021-03-02 09:00:00 6.6 10 Oeste 18 Noroeste 0 -- -- 89
2021-03-02 08:00:00 6.4 8 Oeste 16 Noroeste 0 -- -- 90
2021-03-02 07:00:00 6.7 10 Oeste 19 Oeste 0 -- -- 90
2021-03-02 06:00:00 6.8 8 Noroeste 21 Noroeste 0 -- -- 90
2021-03-02 05:00:00 6.9 6 Oeste 18 Oeste 0 -- -- 90
2021-03-02 04:00:00 7 9 Oeste 22 Oeste 0 -- -- 90
2021-03-02 03:00:00 6.8 11 Oeste 22 Oeste 0 -- -- 90
2021-03-02 02:00:00 7.2 14 Oeste 25 Oeste 0 -- -- 88
2021-03-02 01:00:00 7.4 11 Oeste 20 Oeste 0 -- -- 86
2021-03-02 00:00:00 7.4 8 Oeste 18 Oeste 0 -- -- 85
2021-03-01 23:00:00 7.6 6 Noroeste 23 Oeste 0 -- -- 84
2021-03-01 22:00:00 8 10 Oeste 22 Oeste 0 -- -- 81
2021-03-01 21:00:00 8.4 12 Oeste 25 Noroeste 0 -- -- 79
2021-03-01 20:00:00 8.8 9 Oeste 23 Oeste 0 -- -- 77
2021-03-01 19:00:00 9.1 6 Sudoeste 20 Oeste 0 -- -- 75
2021-03-01 18:00:00 9.9 9 Oeste 29 Oeste 0 -- -- 73
2021-03-01 17:00:00 11 14 Oeste 27 Oeste 0 -- -- 67
2021-03-01 16:00:00 10.9 14 Oeste 28 Oeste 0 -- -- 69
2021-03-01 15:00:00 10 10 Oeste 24 Oeste 0 -- -- 68
2021-03-01 14:00:00 10 14 Oeste 29 Oeste 0 -- -- 69
2021-03-01 13:00:00 9.8 17 Oeste 34 Oeste 0 -- -- 72
2021-03-01 12:00:00 8.8 16 Noroeste 37 Noroeste 0 -- -- 77
2021-03-01 11:00:00 8 15 Oeste 27 Noroeste 0 -- -- 78
2021-03-01 10:00:00 6.6 13 Oeste 23 Oeste 0 -- -- 82
2021-03-01 09:00:00 5 12 Oeste 22 Oeste 0 -- -- 88
2021-03-01 08:00:00 4.5 8 Noroeste 19 Oeste 0 -- -- 88
2021-03-01 07:00:00 4.4 6 Noroeste 13 Noroeste 0 -- -- 96
2021-03-01 06:00:00 4.2 3 Nordeste 9 Sur 0 -- -- 96
2021-03-01 05:00:00 4.6 6 Sudoeste 15 Oeste 2.4 -- -- 94
2021-03-01 04:00:00 4.9 14 Oeste 34 Sudoeste 3 -- -- 93
2021-03-01 03:00:00 6.2 8 Oeste 24 Oeste 0 -- -- 84
2021-03-01 02:00:00 6.3 9 Oeste 19 Oeste 0 -- -- 90
2021-03-01 01:00:00 4.7 2 Noroeste 5 Este 0 -- -- 94
2021-03-01 00:00:00 4.7 0 Calma 9 Sudeste 0 -- -- 90
2021-02-28 23:00:00 4.9 5 Sudeste 11 Sur 0 -- -- 90
2021-02-28 22:00:00 5.6 5 Sudeste 10 Sudeste 0 -- -- 88
2021-02-28 21:00:00 5.7 6 Sudeste 11 Sur 0 -- -- 86
2021-02-28 20:00:00 5.6 6 Sur 13 Sudeste 0 -- -- 85
2021-02-28 19:00:00 6 9 Sur 19 Sudeste 0 -- -- 83
2021-02-28 18:00:00 6.4 9 Sur 22 Sur 0 -- -- 80
2021-02-28 17:00:00 6.8 11 Sudeste 23 Sur 0 -- -- 76
2021-02-28 16:00:00 6.3 17 Sur 29 Sur 0 -- -- 78
2021-02-28 15:00:00 6.7 15 Sur 24 Sudeste 0 -- -- 76
2021-02-28 14:00:00 5.6 14 Sur 28 Sudeste 0 -- -- 80
2021-02-28 13:00:00 5.8 14 Sur 26 Sur 0 -- -- 76
2021-02-28 12:00:00 5.2 10 Sur 22 Sur 0 -- -- 80
2021-02-28 11:00:00 4.1 10 Sur 16 Sur 0 -- -- 82
2021-02-28 10:00:00 2.2 11 Sur 20 Sur 0 -- -- 89
2021-02-28 09:00:00 -1.5 5 Sudeste 12 Sudeste 0 -- -- 98
2021-02-28 08:00:00 -2.8 7 Sudeste 15 Sudeste 0 -- -- 97
2021-02-28 07:00:00 -2.8 2 Este 13 Este 0 -- -- 96
2021-02-28 06:00:00 -2.1 12 Este 15 Este 0 -- -- 96
2021-02-28 05:00:00 -1.7 2 Nordeste 6 Este 0 -- -- 96
2021-02-28 04:00:00 -0.8 2 Norte 7 Norte 0 -- -- 94
2021-02-28 03:00:00 0.8 3 Norte 18 Sur 0 -- -- 90
2021-02-28 02:00:00 1.8 10 Sur 19 Sur 0 -- -- 90
2021-02-28 01:00:00 1.5 10 Sur 24 Sur 0 -- -- 91
2021-02-28 00:00:00 2.2 17 Sur 31 Sur 0 -- -- 89
2021-02-27 23:00:00 2.5 10 Sudoeste 21 Sur 0 -- -- 85
2021-02-27 22:00:00 3.1 12 Sur 19 Sur 0 -- -- 82
2021-02-27 21:00:00 3.8 13 Sur 23 Sur 0 -- -- 79
2021-02-27 20:00:00 4.6 6 Sur 15 Sur 0 -- -- 74
2021-02-27 19:00:00 7.1 8 Sur 27 Sur 0 -- -- 66
2021-02-27 18:00:00 9.2 20 Sur 36 Sur 0 -- -- 58
2021-02-27 17:00:00 10.8 13 Sur 32 Sur 0 -- -- 58
2021-02-27 16:00:00 11.1 17 Sudeste 34 Sur 0 -- -- 58
2021-02-27 15:00:00 10.9 20 Sur 36 Sur 0 -- -- 56
2021-02-27 14:00:00 9.8 21 Sur 35 Sur 0 -- -- 65
2021-02-27 13:00:00 9.2 19 Sur 35 Sur 0 -- -- 76
2021-02-27 12:00:00 7.6 17 Sur 37 Sur 0 -- -- 82
2021-02-27 11:00:00 6.9 17 Sur 30 Sudeste 0 -- -- 90
2021-02-27 10:00:00 6.4 15 Sur 27 Sur 0 -- -- 88
2021-02-27 09:00:00 5.9 13 Sur 27 Sur 0 -- -- 86
2021-02-27 08:00:00 5.5 11 Sur 22 Sudeste 0 -- -- 91
2021-02-27 07:00:00 5.5 13 Sur 23 Sudoeste 0 -- -- 89
2021-02-27 06:00:00 5.9 12 Sur 23 Sur 0 -- -- 90
2021-02-27 05:00:00 6 10 Sur 23 Sur 0 -- -- 90
2021-02-27 04:00:00 6.2 13 Sur 23 Sur 0 -- -- 90
2021-02-27 03:00:00 6.3 7 Sur 23 Sur 0 -- -- 90
2021-02-27 02:00:00 6.4 10 Sur 23 Sudeste 0 -- -- 92
2021-02-27 01:00:00 6.5 12 Sur 23 Sudeste 0 -- -- 90
2021-02-27 00:00:00 6.7 10 Sur 21 Sur 0 -- -- 89
2021-02-26 23:00:00 6.8 10 Sur 23 Sudeste 0 -- -- 88
2021-02-26 22:00:00 7.1 6 Sur 19 Sur 0 -- -- 88
2021-02-26 21:00:00 7.4 11 Sur 21 Sur 0 -- -- 87
2021-02-26 20:00:00 7.7 10 Sur 22 Sur 0 -- -- 86
2021-02-26 19:00:00 7.9 13 Sur 26 Sur 0 -- -- 85
2021-02-26 18:00:00 9 15 Sur 34 Sudeste 0 -- -- 79
2021-02-26 17:00:00 9.8 18 Sur 32 Sur 0 -- -- 78
2021-02-26 16:00:00 10.2 18 Sur 35 Sur 0 -- -- 77
2021-02-26 15:00:00 10 16 Sur 35 Sudeste 0 -- -- 77
2021-02-26 14:00:00 8.8 17 Sur 33 Sur 0 -- -- 84
2021-02-26 13:00:00 8 14 Sur 26 Sur 0 -- -- 87
2021-02-26 12:00:00 7.7 10 Sur 24 Sudeste 0 -- -- 88
2021-02-26 11:00:00 7.3 13 Sur 23 Sur 0 -- -- 89
2021-02-26 10:00:00 7.1 17 Sur 30 Sudeste 0 -- -- 89
2021-02-26 09:00:00 6.7 13 Sur 25 Sur 0 -- -- 93
2021-02-26 08:00:00 6.5 12 Sur 24 Sur 0 -- -- 93
2021-02-26 07:00:00 6.5 11 Sur 28 Sur 0 -- -- 95
2021-02-26 06:00:00 6.6 13 Sur 26 Sur 0 -- -- 95
2021-02-26 05:00:00 6.7 11 Sur 24 Sur 0 -- -- 96
2021-02-26 04:00:00 6.7 14 Sur 23 Sur 0 -- -- 96
2021-02-26 03:00:00 6.4 4 Sudeste 16 Sudeste 0 -- -- 95
2021-02-26 02:00:00 6.8 10 Sur 21 Sudeste 0 -- -- 95
2021-02-26 01:00:00 6.9 10 Sur 18 Sur 0 -- -- 95
2021-02-26 00:00:00 6.9 12 Sur 23 Sur 0 -- -- 95
2021-02-25 23:00:00 6.6 8 Sur 18 Sur 0 -- -- 95
2021-02-25 22:00:00 7 8 Sur 19 Sur 0 -- -- 92
2021-02-25 21:00:00 7.3 7 Sur 19 Sudoeste 0 -- -- 88
2021-02-25 20:00:00 7.4 9 Sur 17 Sur 0 -- -- 87
2021-02-25 19:00:00 8.8 9 Sur 15 Sur 0 -- -- 81
2021-02-25 18:00:00 9.9 10 Sur 18 Sudoeste 0 -- -- 75
2021-02-25 17:00:00 10.7 10 Sur 19 Sudeste 0 -- -- 74
2021-02-25 16:00:00 10.9 9 Sudoeste 17 Sudoeste 0 -- -- 71
2021-02-25 15:00:00 11.5 6 Sudoeste 15 Sur 0 -- -- 72
2021-02-25 14:00:00 10.3 8 Sudoeste 14 Sudoeste 0 -- -- 75
2021-02-25 13:00:00 9.9 6 Sudoeste 13 Oeste 0 -- -- 75
2021-02-25 12:00:00 8.4 8 Sudoeste 15 Sudoeste 0 -- -- 83
2021-02-25 11:00:00 7 7 Sudoeste 13 Oeste 0 -- -- 90
2021-02-25 10:00:00 5 3 Sudoeste 8 Sudoeste 0 -- -- 97
2021-02-25 09:00:00 2.4 2 Este 7 Este 0 -- -- 98
2021-02-25 08:00:00 1.4 0 Calma 12 Este 0 -- -- 96
2021-02-25 07:00:00 1.4 3 Este 5 Sudeste 0 -- -- 96
2021-02-25 06:00:00 2.1 3 Este 10 Este 0 -- -- 95
2021-02-25 05:00:00 2.5 0 Calma 2 Sudeste 0 -- -- 93
2021-02-25 04:00:00 3.3 0 Calma 5 Este 0 -- -- 91
2021-02-25 03:00:00 4.9 0 Calma 9 Este 0 -- -- 86
2021-02-25 02:00:00 7.1 2 Sudeste 15 Noroeste 0 -- -- 80
2021-02-25 01:00:00 8.3 5 Oeste 14 Noroeste 0 -- -- 76
2021-02-25 00:00:00 8.5 3 Sudoeste 12 Noroeste 0 -- -- 76
2021-02-24 23:00:00 9 3 Noroeste 20 Oeste 0 -- -- 74
2021-02-24 22:00:00 9.4 9 Oeste 21 Oeste 0 -- -- 73
2021-02-24 21:00:00 9.2 5 Oeste 13 Noroeste 0 -- -- 76
2021-02-24 20:00:00 10.5 5 Noroeste 14 Norte 0 -- -- 69
2021-02-24 19:00:00 11.8 5 Oeste 26 Noroeste 0 -- -- 65
2021-02-24 18:00:00 13.6 13 Noroeste 31 Noroeste 0 -- -- 58
2021-02-24 17:00:00 13.8 19 Noroeste 50 Noroeste 0 -- -- 60
2021-02-24 16:00:00 13.7 15 Noroeste 48 Noroeste 0 -- -- 59
2021-02-24 15:00:00 12.8 18 Noroeste 40 Norte 0 -- -- 64
2021-02-24 14:00:00 11.8 18 Noroeste 36 Noroeste 0 -- -- 64
2021-02-24 13:00:00 11.5 19 Noroeste 35 Noroeste 0 -- -- 67
2021-02-24 12:00:00 9.6 17 Noroeste 35 Oeste 0 -- -- 72
2021-02-24 11:00:00 7.6 10 Noroeste 22 Noroeste 0 -- -- 79
2021-02-24 10:00:00 5.7 8 Norte 17 Norte 0 -- -- 87
2021-02-24 09:00:00 1.6 4 Noroeste 8 Norte 0 -- -- 98
2021-02-24 08:00:00 -0.6 0 Calma 4 Este 0 -- -- 95
2021-02-24 07:00:00 0.1 0 Calma 5 Sudoeste 0 -- -- 94
2021-02-24 06:00:00 1.2 3 Noroeste 12 Norte 0 -- -- 95
2021-02-24 05:00:00 1 2 Nordeste 13 Norte 0 -- -- 90
2021-02-24 04:00:00 3.3 9 Norte 17 Norte 0 -- -- 87
2021-02-24 03:00:00 2.4 7 Norte 15 Norte 0 -- -- 91
2021-02-24 02:00:00 3.9 3 Norte 17 Nordeste 0 -- -- 79
2021-02-24 01:00:00 5.2 10 Norte 19 Nordeste 0 -- -- 73
2021-02-24 00:00:00 2.1 0 Calma 6 Norte 0 -- -- 79
2021-02-23 23:00:00 4.5 4 Noroeste 14 Norte 0 -- -- 70
2021-02-23 22:00:00 5.3 6 Norte 14 Norte 0 -- -- 64
2021-02-23 21:00:00 6.3 6 Nordeste 17 Nordeste 0 -- -- 67
2021-02-23 20:00:00 7.3 8 Norte 15 Norte 0 -- -- 64
2021-02-23 19:00:00 8.9 6 Norte 19 Noroeste 0 -- -- 55
2021-02-23 18:00:00 11.1 12 Norte 27 Norte 0 -- -- 49
2021-02-23 17:00:00 11.8 15 Noroeste 29 Norte 0 -- -- 38
2021-02-23 16:00:00 12 13 Noroeste 28 Oeste 0 -- -- 39
2021-02-23 15:00:00 11.3 15 Noroeste 31 Oeste 0 -- -- 45
2021-02-23 14:00:00 10.3 17 Noroeste 34 Noroeste 0 -- -- 51
2021-02-23 13:00:00 9.3 16 Noroeste 36 Oeste 0 -- -- 63
2021-02-23 12:00:00 8.6 12 Noroeste 25 Norte 0 -- -- 63
2021-02-23 11:00:00 7.1 9 Noroeste 19 Norte 0 -- -- 65
2021-02-23 10:00:00 4 5 Norte 9 Noroeste 0 -- -- 82
2021-02-23 09:00:00 0.2 0 Calma 6 Oeste 0 -- -- 96
2021-02-23 08:00:00 -0.4 4 Sudoeste 11 Noroeste 0 -- -- 96
2021-02-23 07:00:00 -1.9 5 Oeste 8 Noroeste 0 -- -- 98
2021-02-23 06:00:00 -2.1 2 Oeste 9 Noroeste 0 -- -- 97
2021-02-23 05:00:00 -1.7 0 Calma 3 Nordeste 0 -- -- 97
2021-02-23 04:00:00 -1.6 0 Calma 4 Nordeste 0 -- -- 97
2021-02-23 03:00:00 -1.3 0 Calma 4 Sur 0 -- -- 97
2021-02-23 02:00:00 -1.2 0 Calma 3 Nordeste 0 -- -- 97
2021-02-23 01:00:00 -0.7 2 Este 3 Este 0 -- -- 96
2021-02-23 00:00:00 0 0 Calma 7 Este 0 -- -- 95
2021-02-22 23:00:00 0.4 0 Calma 9 Este 0 -- -- 94
2021-02-22 22:00:00 1.2 2 Este 10 Este 0 -- -- 92
2021-02-22 21:00:00 2.4 0 Calma 5 Este 0 -- -- 89
2021-02-22 20:00:00 4.5 0 Calma 8 Sudoeste 0 -- -- 84
2021-02-22 19:00:00 7 4 Oeste 15 Noroeste 0 -- -- 74
2021-02-22 18:00:00 8.4 9 Oeste 26 Oeste 0 -- -- 69
2021-02-22 17:00:00 9.8 11 Noroeste 20 Noroeste 0 -- -- 64
2021-02-22 16:00:00 9.6 10 Sudoeste 18 Oeste 0 -- -- 64
2021-02-22 15:00:00 9.3 5 Sudoeste 13 Noroeste 0 -- -- 64
2021-02-22 14:00:00 9 7 Sudoeste 13 Norte 0 -- -- 56
2021-02-22 13:00:00 8.2 4 Nordeste 11 Oeste 0 -- -- 69
2021-02-22 12:00:00 7.2 5 Sudoeste 17 Sudoeste 0 -- -- 73
2021-02-22 11:00:00 5.6 3 Sur 13 Sudoeste 0 -- -- 84
2021-02-22 10:00:00 3.9 9 Oeste 15 Sudoeste 0 -- -- 95
2021-02-22 09:00:00 2.3 10 Oeste 20 Oeste 0 -- -- 96
2021-02-22 08:00:00 2.1 2 Noroeste 8 Oeste 0 -- -- 96
2021-02-22 07:00:00 2.3 4 Noroeste 14 Noroeste 0 -- -- 96
2021-02-22 06:00:00 2.6 5 Noroeste 12 Sudoeste 0 -- -- 96
2021-02-22 05:00:00 2.7 4 Sudoeste 9 Sudoeste 0.2 -- -- 95
2021-02-22 04:00:00 2.7 5 Oeste 10 Oeste 0.2 -- -- 95
2021-02-22 03:00:00 2.6 3 Oeste 6 Oeste 0.4 -- -- 96
2021-02-22 02:00:00 2.4 3 Noroeste 10 Sur 0.6 -- -- 96
2021-02-22 01:00:00 2.3 4 Sudeste 12 Sudeste 1.4 -- -- 96
2021-02-22 00:00:00 2.4 3 Sur 15 Sur 2.4 -- -- 96
2021-02-21 23:00:00 2.4 10 Sur 23 Sur 2 -- -- 96
2021-02-21 22:00:00 3.5 6 Sudeste 22 Sudeste 1.8 -- -- 95
2021-02-21 21:00:00 4.6 11 Sur 28 Sudeste 1.8 -- -- 95
2021-02-21 20:00:00 6.2 10 Sudeste 23 Sudeste 2 -- -- 96
2021-02-21 19:00:00 6.9 10 Sudoeste 19 Sudoeste 1.4 -- -- 93
2021-02-21 18:00:00 7.6 3 Sudeste 9 Sudoeste 0.8 -- -- 91
2021-02-21 17:00:00 8.1 7 Sur 17 Sur 0 -- -- 85
2021-02-21 16:00:00 8.7 7 Sudoeste 27 Sudoeste 0.2 -- -- 78
2021-02-21 15:00:00 10.1 9 Sudoeste 19 Sudoeste 0 -- -- 66
2021-02-21 14:00:00 10.2 6 Oeste 27 Sudoeste 0 -- -- 62
2021-02-21 13:00:00 10.3 7 Oeste 22 Oeste 0 -- -- 60
2021-02-21 12:00:00 9.9 9 Oeste 27 Oeste 0 -- -- 60
2021-02-21 11:00:00 9.3 13 Oeste 28 Noroeste 0 -- -- 62
2021-02-21 10:00:00 8.6 15 Oeste 30 Oeste 0 -- -- 65
2021-02-21 09:00:00 8.4 17 Oeste 32 Oeste 0 -- -- 66
2021-02-21 08:00:00 8.7 16 Oeste 32 Noroeste 0 -- -- 66
2021-02-21 07:00:00 9.2 16 Oeste 36 Oeste 0 -- -- 65
2021-02-21 06:00:00 9.5 16 Noroeste 33 Oeste 0 -- -- 63
2021-02-21 05:00:00 9.8 17 Noroeste 29 Noroeste 0 -- -- 60
2021-02-21 04:00:00 9.9 15 Noroeste 32 Oeste 0 -- -- 54
2021-02-21 03:00:00 9.8 16 Oeste 32 Oeste 0 -- -- 50
2021-02-21 02:00:00 9.8 17 Oeste 34 Noroeste 0 -- -- 47
2021-02-21 01:00:00 9.8 14 Oeste 29 Noroeste 0 -- -- 49
2021-02-21 00:00:00 10 14 Oeste 28 Oeste 0 -- -- 49
2021-02-20 23:00:00 10.5 13 Oeste 28 Oeste 0 -- -- 48
2021-02-20 22:00:00 10.5 15 Oeste 31 Oeste 0 -- -- 49
2021-02-20 21:00:00 11.3 16 Oeste 41 Noroeste 0 -- -- 47
2021-02-20 20:00:00 11.4 21 Oeste 41 Noroeste 0 -- -- 47
2021-02-20 19:00:00 11.3 17 Oeste 37 Oeste 0 -- -- 48
2021-02-20 18:00:00 11.2 15 Oeste 39 Oeste 0 -- -- 52
2021-02-20 17:00:00 11.9 14 Noroeste 36 Oeste 0 -- -- 49
2021-02-20 16:00:00 12.3 22 Noroeste 50 Noroeste 0 -- -- 51
2021-02-20 15:00:00 11.9 23 Noroeste 53 Noroeste 0 -- -- 51
2021-02-20 14:00:00 12.2 19 Noroeste 56 Noroeste 0 -- -- 53
2021-02-20 13:00:00 11.9 27 Noroeste 62 Noroeste 0 -- -- 54
2021-02-20 12:00:00 11 24 Noroeste 50 Noroeste 0 -- -- 58
2021-02-20 11:00:00 10.3 14 Norte 37 Noroeste 0 -- -- 61
2021-02-20 10:00:00 9.5 12 Norte 44 Noroeste 0 -- -- 62
2021-02-20 09:00:00 8 14 Norte 44 Norte 0 -- -- 63
2021-02-20 08:00:00 7.6 12 Noroeste 37 Noroeste 0 -- -- 64
2021-02-20 07:00:00 8.1 10 Norte 53 Oeste 0 -- -- 62
2021-02-20 06:00:00 7.9 10 Noroeste 34 Norte 0 -- -- 66
2021-02-20 05:00:00 7.6 13 Norte 34 Oeste 0 -- -- 74
2021-02-20 04:00:00 7.2 12 Norte 33 Noroeste 0 -- -- 75
2021-02-20 03:00:00 6.8 10 Norte 24 Noroeste 0 -- -- 78
2021-02-20 02:00:00 6.9 9 Noroeste 21 Oeste 0 -- -- 82
2021-02-20 01:00:00 6.6 8 Noroeste 23 Noroeste 0 -- -- 82
2021-02-20 00:00:00 3.6 3 Sudeste 13 Norte 0 -- -- 94
2021-02-19 23:00:00 3 2 Norte 6 Sudeste 0 -- -- 93
2021-02-19 22:00:00 4 2 Este 5 Sudeste 0 -- -- 88
2021-02-19 21:00:00 5.8 0 Calma 6 Norte 0 -- -- 81
2021-02-19 20:00:00 8.1 4 Norte 15 Norte 0 -- -- 74
2021-02-19 19:00:00 9.9 7 Norte 23 Norte 0 -- -- 66
2021-02-19 18:00:00 11.1 11 Norte 27 Norte 0 -- -- 67
2021-02-19 17:00:00 12 15 Norte 48 Norte 0 -- -- 61
2021-02-19 16:00:00 13.1 19 Noroeste 43 Noroeste 0 -- -- 56
2021-02-19 15:00:00 12.8 22 Norte 41 Norte 0 -- -- 54
2021-02-19 14:00:00 11.7 22 Norte 48 Oeste 0 -- -- 59
2021-02-19 13:00:00 9.8 17 Norte 32 Norte 0 -- -- 82
2021-02-19 12:00:00 8.1 17 Norte 39 Norte 0 -- -- 85
2021-02-19 11:00:00 8 14 Norte 30 Norte 0 -- -- 87
2021-02-19 10:00:00 7.6 14 Norte 29 Norte 0 -- -- 93
2021-02-19 09:00:00 7.4 12 Norte 27 Noroeste 0 -- -- 94
2021-02-19 08:00:00 7.3 13 Norte 27 Nordeste 0 -- -- 95
2021-02-19 07:00:00 7.2 11 Norte 22 Norte 0.2 -- -- 96
2021-02-19 06:00:00 7 10 Norte 28 Norte 0 -- -- 96
2021-02-19 05:00:00 7.2 11 Norte 26 Norte 0 -- -- 94
2021-02-19 04:00:00 7.3 14 Norte 29 Norte 0 -- -- 94
2021-02-19 03:00:00 7.4 13 Norte 32 Norte 0 -- -- 94
2021-02-19 02:00:00 7.6 14 Norte 24 Norte 0.2 -- -- 94
2021-02-19 01:00:00 7.5 15 Norte 31 Norte 2.4 -- -- 96
2021-02-19 00:00:00 7.6 12 Norte 35 Norte 0.8 -- -- 95
2021-02-18 23:00:00 7.7 11 Norte 24 Norte 0.2 -- -- 94
2021-02-18 22:00:00 7.8 4 Norte 20 Norte 0 -- -- 92
2021-02-18 21:00:00 7.9 7 Noroeste 27 Noroeste 0 -- -- 89
2021-02-18 20:00:00 8.4 10 Noroeste 26 Noroeste 0 -- -- 89
2021-02-18 19:00:00 9 12 Norte 31 Norte 0 -- -- 83
2021-02-18 18:00:00 9.3 12 Norte 40 Norte 0 -- -- 82
2021-02-18 17:00:00 10.4 20 Norte 45 Norte 0 -- -- 74
2021-02-18 16:00:00 10.8 20 Norte 40 Norte 0 -- -- 74
2021-02-18 15:00:00 9.4 18 Norte 37 Norte 0.2 -- -- 81
2021-02-18 14:00:00 8.6 11 Noroeste 37 Norte 0.2 -- -- 87
2021-02-18 13:00:00 8 14 Norte 37 Norte 0.2 -- -- 88
2021-02-18 12:00:00 7.6 15 Norte 41 Noroeste 0 -- -- 88
2021-02-18 11:00:00 6.6 11 Noroeste 24 Oeste 0.6 -- -- 94
2021-02-18 10:00:00 6.7 11 Oeste 28 Noroeste 0 -- -- 92
2021-02-18 09:00:00 6.9 10 Noroeste 33 Noroeste 0 -- -- 90
2021-02-18 08:00:00 7.2 12 Noroeste 33 Noroeste 0 -- -- 90
2021-02-18 07:00:00 7.5 12 Norte 38 Norte 0 -- -- 89
2021-02-18 06:00:00 7.6 15 Norte 49 Norte 0 -- -- 89
2021-02-18 05:00:00 7.9 22 Norte 45 Noroeste 0 -- -- 89
2021-02-18 04:00:00 7.6 13 Noroeste 45 Oeste 0 -- -- 91
2021-02-18 03:00:00 8 11 Noroeste 40 Noroeste 0 -- -- 89
2021-02-18 02:00:00 8.3 14 Norte 34 Norte 0 -- -- 88
2021-02-18 01:00:00 8.5 17 Norte 31 Norte 0 -- -- 88
2021-02-18 00:00:00 9.1 11 Norte 32 Oeste 0 -- -- 89
2021-02-17 23:00:00 8.9 8 Norte 22 Noroeste 0 -- -- 90
2021-02-17 22:00:00 8.9 10 Norte 24 Norte 0 -- -- 90
2021-02-17 21:00:00 9 13 Norte 23 Norte 0 -- -- 90
2021-02-17 20:00:00 9.6 10 Norte 24 Norte 0 -- -- 88
2021-02-17 19:00:00 9.7 8 Noroeste 28 Oeste 0 -- -- 86
2021-02-17 18:00:00 10 11 Noroeste 31 Oeste 0 -- -- 84
2021-02-17 17:00:00 11.1 12 Noroeste 36 Noroeste 0 -- -- 76
2021-02-17 16:00:00 11.3 16 Noroeste 35 Noroeste 0 -- -- 70
2021-02-17 15:00:00 10.5 14 Norte 36 Noroeste 0 -- -- 73
2021-02-17 14:00:00 10.5 10 Norte 32 Noroeste 0 -- -- 76
2021-02-17 13:00:00 9.8 13 Norte 31 Noroeste 0 -- -- 83
2021-02-17 12:00:00 8.7 10 Norte 26 Norte 0 -- -- 88
2021-02-17 11:00:00 7 9 Norte 16 Norte 0 -- -- 95
2021-02-17 10:00:00 6.1 8 Norte 13 Nordeste 0 -- -- 94
2021-02-17 09:00:00 5.9 9 Norte 16 Norte 0 -- -- 93
2021-02-17 08:00:00 5.5 8 Norte 15 Norte 0 -- -- 93
2021-02-17 07:00:00 5.4 9 Norte 18 Norte 0 -- -- 91
2021-02-17 06:00:00 5.3 10 Norte 17 Norte 0 -- -- 92
2021-02-17 05:00:00 5.1 8 Norte 15 Norte 0 -- -- 93
2021-02-17 04:00:00 5.7 7 Norte 17 Norte 0 -- -- 93
2021-02-17 03:00:00 5.7 8 Norte 18 Norte 0 -- -- 93
2021-02-17 02:00:00 6 11 Norte 21 Norte 0 -- -- 93
2021-02-17 01:00:00 6.1 4 Norte 9 Nordeste 0 -- -- 96
2021-02-17 00:00:00 5.5 3 Noroeste 12 Noroeste 0 -- -- 96
2021-02-16 23:00:00 6.3 8 Norte 15 Noroeste 0.2 -- -- 93
2021-02-16 22:00:00 6.8 10 Norte 15 Norte 0 -- -- 94
2021-02-16 21:00:00 6 0 Calma 9 Noroeste 0 -- -- 96
2021-02-16 20:00:00 6.1 4 Noroeste 16 Norte 0 -- -- 94
2021-02-16 19:00:00 7.7 12 Norte 26 Norte 0 -- -- 89
2021-02-16 18:00:00 8.5 10 Norte 28 Norte 0.8 -- -- 88
2021-02-16 17:00:00 9.8 13 Noroeste 30 Norte 0 -- -- 84
2021-02-16 16:00:00 10 15 Norte 31 Nordeste 0 -- -- 79
2021-02-16 15:00:00 9.2 14 Norte 38 Norte 0 -- -- 82
2021-02-16 14:00:00 9.2 18 Norte 39 Norte 0 -- -- 80
2021-02-16 13:00:00 9.7 15 Norte 37 Noroeste 0 -- -- 76
2021-02-16 12:00:00 10.1 15 Norte 43 Norte 0 -- -- 72
2021-02-16 11:00:00 8.3 14 Norte 36 Norte 0 -- -- 80
2021-02-16 10:00:00 6.8 10 Norte 32 Norte 0 -- -- 81
2021-02-16 09:00:00 4.5 8 Norte 27 Norte 0 -- -- 91
2021-02-16 08:00:00 3.3 7 Norte 22 Norte 0 -- -- 96
2021-02-16 07:00:00 1.3 0 Calma 3 Oeste 0 -- -- 95
2021-02-16 06:00:00 2.7 2 Norte 11 Norte 0 -- -- 94
2021-02-16 05:00:00 2.6 3 Norte 6 Noroeste 0 -- -- 95
2021-02-16 04:00:00 3.7 4 Noroeste 9 Nordeste 0 -- -- 93
2021-02-16 03:00:00 4.7 4 Norte 13 Nordeste 0 -- -- 89
2021-02-16 02:00:00 5.5 5 Norte 14 Noroeste 0 -- -- 87
2021-02-16 01:00:00 7.1 5 Noroeste 20 Noroeste 0 -- -- 81
2021-02-16 00:00:00 8 11 Oeste 33 Noroeste 0 -- -- 80
2021-02-15 23:00:00 8.7 12 Oeste 29 Noroeste 0 -- -- 79
2021-02-15 22:00:00 9.2 9 Noroeste 26 Noroeste 0 -- -- 79
2021-02-15 21:00:00 6.1 3 Norte 8 Oeste 0 -- -- 89
2021-02-15 20:00:00 7.3 2 Norte 6 Nordeste 0 -- -- 84
2021-02-15 19:00:00 9.6 3 Norte 9 Nordeste 0 -- -- 79
2021-02-15 18:00:00 12.3 7 Noroeste 20 Noroeste 0 -- -- 66
2021-02-15 17:00:00 12.7 5 Oeste 14 Oeste 0 -- -- 64
2021-02-15 16:00:00 12.3 8 Oeste 15 Noroeste 0 -- -- 67
2021-02-15 15:00:00 12.3 8 Noroeste 19 Noroeste 0 -- -- 67
2021-02-15 14:00:00 12.3 8 Norte 20 Norte 0 -- -- 67
2021-02-15 13:00:00 11.6 14 Norte 21 Norte 0 -- -- 68
2021-02-15 12:00:00 10.1 8 Norte 16 Norte 0 -- -- 79
2021-02-15 11:00:00 7.3 3 Norte 7 Norte 0 -- -- 91
2021-02-15 10:00:00 4.3 3 Sur 8 Sudeste 0 -- -- 100
2021-02-15 09:00:00 2.6 3 Este 14 Este 0 -- -- 99
2021-02-15 08:00:00 1.8 0 Calma 8 Este 0 -- -- 97
2021-02-15 07:00:00 3.2 4 Este 10 Este 0 -- -- 97
2021-02-15 06:00:00 4.4 2 Este 12 Sudeste 0 -- -- 95
2021-02-15 05:00:00 5.9 7 Noroeste 13 Noroeste 0 -- -- 94
2021-02-15 04:00:00 5.1 2 Norte 13 Noroeste 0 -- -- 96
2021-02-15 03:00:00 4.5 0 Calma 12 Norte 0 -- -- 97
2021-02-15 02:00:00 4.8 6 Norte 12 Norte 0 -- -- 99
2021-02-15 01:00:00 3.9 0 Calma 9 Norte 0 -- -- 96
2021-02-15 00:00:00 5.7 5 Norte 15 Norte 0 -- -- 93
2021-02-14 23:00:00 5.2 4 Norte 12 Nordeste 0 -- -- 94
2021-02-14 22:00:00 6.2 4 Norte 13 Nordeste 0 -- -- 90
2021-02-14 21:00:00 7 5 Nordeste 10 Norte 0 -- -- 91
2021-02-14 20:00:00 8.6 9 Nordeste 18 Norte 0 -- -- 85
2021-02-14 19:00:00 9 5 Norte 12 Noroeste 0 -- -- 85
2021-02-14 18:00:00 10.4 7 Noroeste 23 Noroeste 0 -- -- 81
2021-02-14 17:00:00 11 7 Noroeste 27 Noroeste 0 -- -- 81
2021-02-14 16:00:00 10.8 16 Oeste 32 Noroeste 0 -- -- 83
2021-02-14 15:00:00 9.3 14 Noroeste 26 Noroeste 0 -- -- 91
2021-02-14 14:00:00 8 13 Noroeste 25 Noroeste 0 -- -- 96
2021-02-14 13:00:00 7.3 13 Noroeste 25 Noroeste 0 -- -- 95
2021-02-14 12:00:00 6.6 16 Norte 26 Norte 0 -- -- 99
2021-02-14 11:00:00 5.7 5 Sudoeste 13 Noroeste 0 -- -- 100
2021-02-14 10:00:00 4.3 12 Noroeste 18 Noroeste 0 -- -- 100
2021-02-14 09:00:00 1.6 0 Calma 9 Noroeste 0 -- -- 100
2021-02-14 08:00:00 -0.5 0 Calma 10 Este 0 -- -- 99
2021-02-14 07:00:00 -0.9 0 Calma 2 Nordeste 0 -- -- 99
2021-02-14 06:00:00 -0.7 0 Calma 8 Norte 0 -- -- 98
2021-02-14 05:00:00 -0.3 2 Nordeste 6 Este 0 -- -- 99
2021-02-14 04:00:00 0.4 2 Sudeste 10 Este 0 -- -- 98
2021-02-14 03:00:00 0.9 4 Este 10 Sudeste 0 -- -- 99
2021-02-14 02:00:00 0.6 2 Este 5 Este 0 -- -- 98
2021-02-14 01:00:00 1.1 2 Nordeste 5 Este 0 -- -- 98
2021-02-14 00:00:00 1.9 2 Este 9 Sudeste 0 -- -- 97
2021-02-13 23:00:00 2.6 4 Este 11 Este 0 -- -- 96
2021-02-13 22:00:00 4 2 Sudeste 7 Este 0 -- -- 94
2021-02-13 21:00:00 5.3 3 Nordeste 13 Este 0 -- -- 92
2021-02-13 20:00:00 5.8 2 Este 6 Sudeste 0 -- -- 88
2021-02-13 19:00:00 7.8 0 Calma 7 Sudoeste 0 -- -- 84
2021-02-13 18:00:00 10.1 5 Sudoeste 10 Oeste 0 -- -- 76
2021-02-13 17:00:00 10.5 8 Oeste 16 Oeste 0 -- -- 73
2021-02-13 16:00:00 11.3 11 Oeste 20 Oeste 0 -- -- 70
2021-02-13 15:00:00 10.1 8 Oeste 15 Oeste 0 -- -- 72
2021-02-13 14:00:00 9.2 8 Noroeste 16 Noroeste 0 -- -- 83
2021-02-13 13:00:00 6.8 6 Sudoeste 14 Oeste 0 -- -- 95
2021-02-13 08:00:00 -- -- -- -- -- -- -- -- --
2021-02-13 07:00:00 3.7 5 Norte 14 Norte 0 -- -- 99
2021-02-13 06:00:00 3.8 3 Norte 13 Norte 0 -- -- 100
2021-02-13 05:00:00 3.5 3 Nordeste 9 Norte 0 -- -- 100
2021-02-13 04:00:00 2.6 5 Este 12 Este 0 -- -- 99
2021-02-13 03:00:00 3.3 2 Nordeste 8 Noroeste 0 -- -- 100
2021-02-13 02:00:00 3.6 2 Norte 9 Noroeste 0 -- -- 99
2021-02-13 01:00:00 3.7 3 Nordeste 10 Este 0 -- -- 99
2021-02-13 00:00:00 2.9 4 Este 10 Este 0 -- -- 99
2021-02-12 23:00:00 2.1 3 Oeste 9 Este 0 -- -- 96
2021-02-12 22:00:00 3.2 4 Sudeste 9 Este 0 -- -- 95
2021-02-12 21:00:00 4.6 3 Sudeste 15 Sur 0 -- -- 93
2021-02-12 20:00:00 6.2 5 Sur 19 Sudeste 0 -- -- 91
2021-02-12 19:00:00 7.2 11 Sur 24 Sur 0 -- -- 88
2021-02-12 18:00:00 8.9 12 Sur 23 Sur 0 -- -- 84
2021-02-12 17:00:00 11.1 5 Sudoeste 20 Sudoeste 0 -- -- 73
2021-02-12 16:00:00 11.2 5 Sudoeste 19 Sur 0 -- -- 73
2021-02-12 15:00:00 10.8 7 Sudoeste 20 Sudeste 0 -- -- 77
2021-02-12 14:00:00 10.7 12 Sur 20 Sur 0 -- -- 77
2021-02-12 13:00:00 10.6 8 Noroeste 17 Norte 0 -- -- 73
2021-02-12 12:00:00 9.3 8 Norte 13 Norte 0 -- -- 82
2021-02-12 11:00:00 7.5 4 Norte 9 Nordeste 0 -- -- 94
2021-02-12 10:00:00 7 9 Norte 15 Noroeste 0.2 -- -- 94
2021-02-12 09:00:00 7.2 5 Este 38 Norte 0 -- -- 91
2021-02-12 08:00:00 7.3 4 Norte 22 Norte 0 -- -- 92
2021-02-12 07:00:00 7.6 8 Norte 23 Norte 0 -- -- 92
2021-02-12 06:00:00 7.8 13 Norte 23 Norte 0 -- -- 91
2021-02-12 05:00:00 8.1 14 Norte 29 Norte 0.2 -- -- 92
2021-02-12 04:00:00 9 12 Norte 44 Norte 0.6 -- -- 94
2021-02-12 03:00:00 8.9 17 Noroeste 36 Oeste 2 -- -- 95
2021-02-12 02:00:00 9.4 9 Noroeste 32 Norte 0.4 -- -- 95
2021-02-12 01:00:00 9.8 9 Norte 33 Norte 0 -- -- 92
2021-02-12 00:00:00 10.1 13 Norte 37 Norte 0 -- -- 91
2021-02-11 23:00:00 10.1 8 Noroeste 25 Norte 0 -- -- 93
2021-02-11 22:00:00 10.1 13 Noroeste 32 Noroeste 0 -- -- 93
2021-02-11 21:00:00 9.6 4 Noroeste 14 Noroeste 0 -- -- 96
2021-02-11 20:00:00 8.7 0 Calma 4 Noroeste 0.2 -- -- 95
2021-02-11 19:00:00 9.2 2 Nordeste 8 Nordeste 0 -- -- 93
2021-02-11 18:00:00 10.3 3 Nordeste 13 Norte 0 -- -- 83
2021-02-11 17:00:00 10.5 9 Norte 23 Norte 0 -- -- 81
2021-02-11 16:00:00 10.8 13 Norte 27 Norte 0 -- -- 79
2021-02-11 15:00:00 9.6 11 Norte 25 Norte 0 -- -- 87
2021-02-11 14:00:00 9 11 Noroeste 25 Noroeste 0 -- -- 89
2021-02-11 13:00:00 8.3 14 Noroeste 32 Norte 0 -- -- 91
2021-02-11 12:00:00 7.8 9 Noroeste 24 Norte 0 -- -- 91
2021-02-11 11:00:00 6.8 12 Norte 22 Noroeste 0 -- -- 94
2021-02-11 10:00:00 5.9 12 Norte 24 Norte 0 -- -- 94
2021-02-11 09:00:00 5.5 4 Noroeste 24 Noroeste 0 -- -- 93
2021-02-11 08:00:00 5.4 18 Noroeste 30 Noroeste 0 -- -- 90
2021-02-11 07:00:00 5.3 13 Norte 25 Noroeste 0 -- -- 87
2021-02-11 06:00:00 5.2 12 Norte 23 Noroeste 0 -- -- 85
2021-02-11 05:00:00 4.8 5 Sudoeste 16 Norte 0 -- -- 86
2021-02-11 04:00:00 5 10 Norte 28 Norte 0 -- -- 83
2021-02-11 03:00:00 5 6 Noroeste 20 Norte 0 -- -- 81
2021-02-11 02:00:00 5.2 7 Norte 23 Norte 0 -- -- 76
2021-02-11 01:00:00 5.4 12 Norte 21 Noroeste 0 -- -- 74
2021-02-11 00:00:00 5.3 10 Noroeste 17 Noroeste 0 -- -- 77
2021-02-10 23:00:00 4.9 4 Noroeste 15 Norte 0 -- -- 83
2021-02-10 22:00:00 4.7 5 Noroeste 12 Noroeste 0 -- -- 84
2021-02-10 21:00:00 6 5 Norte 21 Norte 0 -- -- 77
2021-02-10 20:00:00 6.7 14 Norte 23 Norte 0 -- -- 76
2021-02-10 19:00:00 7.1 7 Noroeste 21 Norte 0 -- -- 75
2021-02-10 18:00:00 8.6 9 Norte 22 Noroeste 0 -- -- 69
2021-02-10 17:00:00 9.9 11 Norte 26 Norte 0 -- -- 61
2021-02-10 16:00:00 9 13 Norte 32 Norte 0 -- -- 66
2021-02-10 15:00:00 8.9 14 Noroeste 28 Norte 0 -- -- 69
2021-02-10 14:00:00 8.5 13 Norte 25 Norte 0 -- -- 69
2021-02-10 13:00:00 7.7 9 Noroeste 28 Noroeste 0 -- -- 73
2021-02-10 12:00:00 6 12 Norte 22 Noroeste 0 -- -- 78
2021-02-10 11:00:00 4.1 5 Noroeste 28 Norte 0 -- -- 85
2021-02-10 10:00:00 2.6 14 Norte 27 Norte 0 -- -- 89
2021-02-10 09:00:00 0.5 4 Norte 13 Norte 0 -- -- 96
2021-02-10 08:00:00 1.1 11 Norte 24 Norte 0.2 -- -- 95
2021-02-10 07:00:00 0.9 8 Noroeste 17 Noroeste 0 -- -- 95
2021-02-10 06:00:00 1.2 8 Norte 25 Norte 0 -- -- 95
2021-02-10 05:00:00 1.9 15 Norte 24 Norte 0 -- -- 95
2021-02-10 04:00:00 2.1 7 Norte 26 Norte 1.2 -- -- 95
2021-02-10 03:00:00 2.9 4 Norte 14 Norte 0.4 -- -- 96
2021-02-10 02:00:00 3 10 Norte 30 Norte 0 -- -- 93
2021-02-10 01:00:00 3 13 Norte 28 Norte 0 -- -- 92
2021-02-10 00:00:00 2.9 10 Norte 23 Norte 0 -- -- 91
2021-02-09 23:00:00 3 13 Norte 29 Norte 0 -- -- 91
2021-02-09 22:00:00 3.2 18 Norte 37 Norte 0.2 -- -- 92
2021-02-09 21:00:00 3.3 13 Noroeste 33 Oeste 0 -- -- 92
2021-02-09 20:00:00 4 10 Noroeste 24 Norte 0 -- -- 89
2021-02-09 19:00:00 4.1 9 Noroeste 27 Noroeste 0 -- -- 88
2021-02-09 18:00:00 4.5 12 Noroeste 32 Noroeste 0 -- -- 84
2021-02-09 17:00:00 5 12 Norte 41 Norte 0 -- -- 83
2021-02-09 16:00:00 5.7 17 Norte 38 Norte 0 -- -- 81
2021-02-09 15:00:00 4.4 18 Norte 32 Norte 0 -- -- 84
2021-02-09 14:00:00 4.6 17 Norte 42 Norte 0 -- -- 84
2021-02-09 13:00:00 4.2 17 Norte 61 Norte 2.2 -- -- 93
2021-02-09 12:00:00 5.7 18 Norte 47 Noroeste 2.6 -- -- 93
2021-02-09 11:00:00 5.7 19 Norte 49 Oeste 2.4 -- -- 93
2021-02-09 10:00:00 5.6 19 Noroeste 60 Noroeste 1.8 -- -- 95
2021-02-09 09:00:00 5.3 15 Noroeste 50 Noroeste 1.4 -- -- 96
2021-02-09 08:00:00 4.5 19 Noroeste 42 Oeste 0.8 -- -- 97
2021-02-09 07:00:00 3.9 18 Noroeste 35 Oeste 0.4 -- -- 97
2021-02-09 06:00:00 3.5 15 Noroeste 36 Oeste 0.2 -- -- 96
2021-02-09 05:00:00 3.5 11 Norte 34 Noroeste 0.6 -- -- 94
2021-02-09 04:00:00 4 12 Norte 29 Norte 0.4 -- -- 93
2021-02-09 03:00:00 4.9 13 Norte 38 Noroeste 0 -- -- 90
2021-02-09 02:00:00 4.9 12 Norte 22 Norte 0 -- -- 92
2021-02-09 01:00:00 4.2 8 Norte 17 Norte 0 -- -- 94
2021-02-09 00:00:00 3.7 2 Sudoeste 26 Norte 0 -- -- 92
2021-02-08 23:00:00 3.6 20 Norte 30 Norte 0 -- -- 90
2021-02-08 22:00:00 3.4 4 Oeste 21 Noroeste 0 -- -- 91
2021-02-08 21:00:00 3.2 3 Sudeste 22 Norte 0 -- -- 90
2021-02-08 20:00:00 4.7 15 Norte 26 Norte 0 -- -- 86
2021-02-08 19:00:00 5.4 8 Noroeste 18 Noroeste 0 -- -- 86
2021-02-08 18:00:00 6.7 9 Noroeste 24 Noroeste 0 -- -- 81
2021-02-08 17:00:00 7.5 15 Norte 30 Noroeste 0 -- -- 80
2021-02-08 16:00:00 6.5 10 Noroeste 32 Norte 0 -- -- 87
2021-02-08 15:00:00 7.9 16 Norte 41 Norte 0 -- -- 73
2021-02-08 14:00:00 7.5 18 Norte 35 Norte 0 -- -- 77
2021-02-08 13:00:00 6 14 Norte 26 Noroeste 0 -- -- 83
2021-02-08 12:00:00 5 8 Norte 27 Norte 0 -- -- 89
2021-02-08 11:00:00 4.7 21 Norte 41 Noroeste 0 -- -- 86
2021-02-08 10:00:00 4.6 12 Norte 29 Noroeste 0 -- -- 88
2021-02-08 09:00:00 3.4 8 Norte 17 Norte 0 -- -- 94
2021-02-08 08:00:00 3.4 3 Oeste 13 Norte 0.2 -- -- 95
2021-02-08 07:00:00 3.5 5 Norte 21 Norte 0 -- -- 97
2021-02-08 06:00:00 3.1 9 Noroeste 15 Noroeste 0 -- -- 99
2021-02-08 05:00:00 2.8 4 Norte 14 Norte 0 -- -- 98
2021-02-08 04:00:00 2.7 8 Norte 17 Norte 0 -- -- 97
2021-02-08 03:00:00 2.9 8 Norte 17 Noroeste 1.2 -- -- 97
2021-02-08 02:00:00 2.8 7 Norte 13 Norte 0.6 -- -- 98
2021-02-08 01:00:00 2.8 5 Norte 15 Norte 0.4 -- -- 97
2021-02-08 00:00:00 3.1 11 Norte 23 Norte 0.6 -- -- 97
2021-02-07 23:00:00 3.1 13 Noroeste 26 Norte 0 -- -- 97
2021-02-07 22:00:00 3.1 10 Norte 17 Norte 0 -- -- 97
2021-02-07 21:00:00 2.6 15 Norte 26 Noroeste 0 -- -- 96
2021-02-07 20:00:00 2.9 11 Norte 22 Norte 0 -- -- 92
2021-02-07 19:00:00 3 10 Noroeste 28 Norte 0 -- -- 89
2021-02-07 18:00:00 3.5 14 Norte 37 Norte 0 -- -- 84
2021-02-07 17:00:00 4 15 Norte 31 Norte 0 -- -- 81
2021-02-07 16:00:00 4.4 17 Noroeste 35 Noroeste 0 -- -- 76
2021-02-07 15:00:00 4.6 14 Norte 33 Norte 0 -- -- 71
2021-02-07 14:00:00 4.5 10 Norte 28 Norte 0 -- -- 71
2021-02-07 13:00:00 3.5 10 Noroeste 30 Norte 0 -- -- 77
2021-02-07 12:00:00 2.5 8 Noroeste 18 Norte 0 -- -- 87
2021-02-07 11:00:00 0.7 8 Norte 17 Norte 0 -- -- 98
2021-02-07 10:00:00 -1.6 4 Sudeste 9 Este 0 -- -- 99
2021-02-07 09:00:00 -3.8 0 Calma 2 Oeste 0 -- -- 99
2021-02-07 08:00:00 -4.5 0 Calma 3 Sudeste 0 -- -- 97
2021-02-07 07:00:00 -4 2 Este 6 Este 0 -- -- 97
2021-02-07 06:00:00 -3.4 3 Este 14 Este 0 -- -- 97
2021-02-07 05:00:00 -3.1 0 Calma 13 Este 0 -- -- 97
2021-02-07 04:00:00 -2.6 5 Este 10 Este 0 -- -- 98
2021-02-07 03:00:00 -2.2 0 Calma 4 Sudeste 0 -- -- 97
2021-02-07 02:00:00 -1.8 3 Nordeste 5 Sudeste 0 -- -- 96
2021-02-07 01:00:00 -0.8 0 Calma 4 Oeste 0 -- -- 96
2021-02-07 00:00:00 0.3 2 Nordeste 15 Sur 0 -- -- 93
2021-02-06 23:00:00 1.1 8 Sur 17 Sur 0 -- -- 92
2021-02-06 22:00:00 1.1 6 Sudeste 13 Sudeste 0 -- -- 93
2021-02-06 21:00:00 1.1 0 Calma 14 Sur 0 -- -- 92
2021-02-06 20:00:00 2.1 2 Oeste 19 Sur 0 -- -- 90
2021-02-06 19:00:00 2.9 9 Sur 22 Sudeste 0 -- -- 86
2021-02-06 18:00:00 4.4 8 Sudeste 21 Sudeste 0 -- -- 84
2021-02-06 17:00:00 4.9 5 Sur 14 Este 0 -- -- 84
2021-02-06 16:00:00 5.3 4 Sudeste 18 Sudeste 0 -- -- 84
2021-02-06 15:00:00 5.8 8 Norte 11 Noroeste 0 -- -- 87
2021-02-06 14:00:00 5.3 5 Norte 11 Noroeste 0.2 -- -- 88
2021-02-06 13:00:00 4.9 3 Noroeste 12 Sur 0 -- -- 90
2021-02-06 12:00:00 4.7 6 Sudoeste 12 Noroeste 0.2 -- -- 90
2021-02-06 11:00:00 4.7 3 Noroeste 9 Oeste 0 -- -- 94
2021-02-06 10:00:00 4.5 4 Sudeste 19 Sudeste 0 -- -- 91
2021-02-06 09:00:00 4.4 12 Sur 19 Sur 0 -- -- 90
2021-02-06 08:00:00 4.4 9 Sur 16 Sudeste 0 -- -- 91
2021-02-06 07:00:00 4.5 4 Sur 15 Este 0.2 -- -- 94
2021-02-06 06:00:00 4.9 0 Calma 22 Sudeste 0.6 -- -- 93
2021-02-06 05:00:00 5.1 5 Sudeste 15 Sudeste 1.8 -- -- 97
2021-02-06 04:00:00 5.1 3 Este 11 Noroeste 4.2 -- -- 97
2021-02-06 03:00:00 5.8 3 Norte 7 Norte 0.4 -- -- 97
2021-02-06 02:00:00 6.2 4 Nordeste 13 Este 0 -- -- 96
2021-02-06 01:00:00 6.4 4 Sur 18 Sudeste 0.4 -- -- 96
2021-02-06 00:00:00 6.6 7 Sudeste 22 Sudeste 0 -- -- 94
2021-02-05 23:00:00 6.9 10 Sudeste 23 Sudeste 0 -- -- 92
2021-02-05 22:00:00 6.6 10 Sur 22 Sur 0 -- -- 94
2021-02-05 21:00:00 6.5 8 Sur 21 Sudeste 0.4 -- -- 96
2021-02-05 20:00:00 6.8 10 Sur 20 Sur 0 -- -- 94
2021-02-05 19:00:00 6.7 14 Sur 24 Sudeste 0 -- -- 94
2021-02-05 18:00:00 7 13 Sur 32 Sur 0 -- -- 94
2021-02-05 17:00:00 7.3 14 Sur 33 Sudeste 0 -- -- 94
2021-02-05 16:00:00 8.3 17 Sur 29 Sudeste 0 -- -- 91
2021-02-05 15:00:00 9.5 5 Norte 16 Norte 0 -- -- 95
2021-02-05 14:00:00 8.1 7 Sur 13 Sur 0 -- -- 94
2021-02-05 13:00:00 6.9 5 Sur 10 Sudeste 0.2 -- -- 98
2021-02-05 12:00:00 6.2 4 Sudeste 13 Sur 1.4 -- -- 99
2021-02-05 11:00:00 5.6 5 Sudeste 13 Sur 0.4 -- -- 98
2021-02-05 10:00:00 5.3 6 Sur 23 Sur 0.6 -- -- 99
2021-02-05 09:00:00 5 4 Sur 17 Sudeste 0.4 -- -- 99
2021-02-05 08:00:00 4.8 7 Sur 17 Sur 0.4 -- -- 99
2021-02-05 07:00:00 4.5 5 Sudeste 6 Sudeste 0.6 -- -- 99
2021-02-05 06:00:00 4.5 2 Nordeste 5 Sudoeste 1.6 -- -- 99
2021-02-05 05:00:00 4.4 0 Calma 5 Nordeste 0 -- -- 99
2021-02-05 04:00:00 4.4 3 Norte 4 Norte 0.8 -- -- 99
2021-02-05 03:00:00 4.4 0 Calma 7 Nordeste 0 -- -- 99
2021-02-05 02:00:00 4.4 2 Noroeste 4 Este 0 -- -- 99
2021-02-05 01:00:00 4.3 3 Sudoeste 4 Noroeste 0 -- -- 99
2021-02-05 00:00:00 4.1 0 Calma 6 Nordeste 0 -- -- 99
2021-02-04 23:00:00 3.7 2 Nordeste 10 Este 0 -- -- 99
2021-02-04 22:00:00 3.5 2 Este 5 Este 0 -- -- 99
2021-02-04 21:00:00 3.6 0 Calma 7 Este 0 -- -- 98
2021-02-04 20:00:00 4.2 2 Sudeste 5 Norte 0 -- -- 98
2021-02-04 19:00:00 4.5 0 Calma 3 Sudeste 0.8 -- -- 97
2021-02-04 18:00:00 4.6 2 Nordeste 5 Sur 2.2 -- -- 97
2021-02-04 17:00:00 4.8 4 Sur 7 Sur 3.6 -- -- 96
2021-02-04 16:00:00 5 3 Sur 5 Sudoeste 4.4 -- -- 95
2021-02-04 15:00:00 5.5 0 Calma 6 Nordeste 3.4 -- -- 93
2021-02-04 14:00:00 6.2 0 Calma 12 Norte 1.6 -- -- 92
2021-02-04 13:00:00 6.8 5 Norte 12 Norte 1 -- -- 89
2021-02-04 12:00:00 7.5 7 Noroeste 12 Oeste 0 -- -- 85
2021-02-04 11:00:00 6.9 8 Norte 15 Norte 0 -- -- 89
2021-02-04 10:00:00 6 8 Norte 14 Norte 0 -- -- 93
2021-02-04 09:00:00 5.2 3 Nordeste 5 Nordeste 0 -- -- 95
2021-02-04 08:00:00 5.2 2 Este 6 Este 0 -- -- 94
2021-02-04 07:00:00 5.5 2 Nordeste 15 Norte 0 -- -- 93
2021-02-04 06:00:00 5.6 6 Norte 16 Norte 0 -- -- 93
2021-02-04 05:00:00 5.6 5 Norte 19 Norte 0 -- -- 92
2021-02-04 04:00:00 5.9 9 Norte 24 Noroeste 0 -- -- 91
2021-02-04 03:00:00 6.4 12 Norte 33 Norte 0 -- -- 90
2021-02-04 02:00:00 6.6 7 Norte 27 Noroeste 0 -- -- 91
2021-02-04 01:00:00 6.8 9 Norte 26 Noroeste 0 -- -- 89
2021-02-04 00:00:00 7.2 10 Noroeste 28 Noroeste 0 -- -- 91
2021-02-03 23:00:00 7.7 12 Noroeste 30 Oeste 0 -- -- 90
2021-02-03 22:00:00 7.7 8 Norte 26 Noroeste 0 -- -- 91
2021-02-03 21:00:00 7.8 12 Oeste 24 Oeste 0 -- -- 90
2021-02-03 20:00:00 8.2 13 Oeste 30 Oeste 0 -- -- 88
2021-02-03 19:00:00 9 12 Oeste 22 Oeste 0 -- -- 83
2021-02-03 18:00:00 10 10 Norte 28 Noroeste 0 -- -- 70
2021-02-03 17:00:00 10.5 12 Noroeste 27 Noroeste 0 -- -- 66
2021-02-03 16:00:00 11.3 14 Norte 44 Noroeste 0 -- -- 62
2021-02-03 15:00:00 11.3 17 Norte 38 Noroeste 0 -- -- 60
2021-02-03 14:00:00 10.7 20 Norte 42 Norte 0 -- -- 63
2021-02-03 13:00:00 10.1 18 Norte 46 Norte 0 -- -- 67
2021-02-03 12:00:00 9.7 18 Norte 42 Norte 0 -- -- 73
2021-02-03 11:00:00 8.7 16 Norte 39 Noroeste 0 -- -- 80
2021-02-03 10:00:00 7.5 17 Norte 32 Noroeste 1.2 -- -- 94
2021-02-03 09:00:00 7.6 22 Norte 37 Norte 0.4 -- -- 91
2021-02-03 08:00:00 8.1 16 Norte 37 Norte 0 -- -- 94
2021-02-03 07:00:00 8 18 Noroeste 47 Noroeste 0.4 -- -- 96
2021-02-03 06:00:00 7.5 17 Noroeste 50 Noroeste 0 -- -- 97
2021-02-03 05:00:00 7.5 19 Noroeste 47 Noroeste 0.2 -- -- 97
2021-02-03 04:00:00 7.3 17 Noroeste 42 Oeste 0.2 -- -- 97
2021-02-03 03:00:00 7.1 17 Noroeste 41 Noroeste 0.4 -- -- 96
2021-02-03 02:00:00 7.4 21 Noroeste 49 Oeste 0.4 -- -- 95
2021-02-03 01:00:00 7.9 18 Oeste 52 Noroeste 0 -- -- 91
2021-02-03 00:00:00 8.1 19 Oeste 52 Noroeste 0 -- -- 90
2021-02-02 23:00:00 8.3 22 Noroeste 57 Oeste 0 -- -- 90
2021-02-02 22:00:00 8.3 22 Noroeste 53 Noroeste 0 -- -- 90
2021-02-02 21:00:00 8.1 10 Noroeste 37 Oeste 0 -- -- 95
2021-02-02 20:00:00 8.2 9 Norte 37 Norte 0.8 -- -- 94
2021-02-02 19:00:00 8.3 9 Noroeste 26 Noroeste 0 -- -- 95
2021-02-02 18:00:00 8.7 8 Norte 18 Noroeste 0 -- -- 93
2021-02-02 17:00:00 8.9 7 Noroeste 21 Oeste 0 -- -- 92
2021-02-02 16:00:00 9 9 Oeste 23 Oeste 0.4 -- -- 93
2021-02-02 15:00:00 8.5 6 Norte 33 Norte 2.2 -- -- 95
2021-02-02 14:00:00 8.8 11 Norte 25 Norte 0 -- -- 90
2021-02-02 13:00:00 8.8 12 Norte 24 Noroeste 0 -- -- 91
2021-02-02 12:00:00 8.8 7 Noroeste 24 Norte 0 -- -- 89
2021-02-02 11:00:00 8.7 7 Norte 31 Noroeste 0 -- -- 90
2021-02-02 10:00:00 8.5 8 Norte 22 Norte 0 -- -- 91
2021-02-02 09:00:00 8.3 14 Noroeste 30 Noroeste 0 -- -- 92
2021-02-02 08:00:00 8.4 18 Noroeste 36 Noroeste 0 -- -- 93
2021-02-02 07:00:00 8.6 13 Noroeste 27 Noroeste 0 -- -- 94
2021-02-02 06:00:00 8.6 18 Norte 33 Noroeste 0.2 -- -- 96
2021-02-02 05:00:00 8.5 18 Norte 28 Noroeste 0 -- -- 97
2021-02-02 04:00:00 8.5 18 Norte 32 Norte 0 -- -- 95
2021-02-02 03:00:00 8.6 18 Norte 45 Noroeste 0 -- -- 94
2021-02-02 02:00:00 8.7 28 Norte 43 Norte 0 -- -- 93
2021-02-02 01:00:00 8.7 6 Norte 26 Norte 0 -- -- 91
2021-02-02 00:00:00 9.1 6 Norte 30 Norte 0 -- -- 88
2021-02-01 23:00:00 9.2 15 Norte 31 Noroeste 0 -- -- 85
2021-02-01 22:00:00 9.2 9 Oeste 26 Noroeste 0 -- -- 82
2021-02-01 21:00:00 9.2 7 Norte 23 Noroeste 0 -- -- 80
2021-02-01 20:00:00 10.7 8 Norte 19 Norte 0 -- -- 75
2021-02-01 19:00:00 11.4 5 Norte 31 Noroeste 0 -- -- 71
2021-02-01 18:00:00 12.2 17 Norte 30 Noroeste 0 -- -- 69
2021-02-01 17:00:00 12.7 14 Norte 33 Noroeste 0 -- -- 67
2021-02-01 16:00:00 13.7 15 Norte 43 Noroeste 0 -- -- 65
2021-02-01 15:00:00 13.9 16 Noroeste 41 Norte 0 -- -- 67
2021-02-01 14:00:00 14.7 22 Norte 36 Norte 0 -- -- 64
2021-02-01 13:00:00 14.8 26 Norte 39 Norte 0 -- -- 58
2021-02-01 12:00:00 12.9 13 Sudoeste 25 Sudoeste 0 -- -- 68
2021-02-01 11:00:00 10.1 13 Oeste 26 Oeste 0 -- -- 74
2021-02-01 10:00:00 8.1 14 Sudoeste 24 Sudoeste 0 -- -- 75
2021-02-01 09:00:00 5 9 Oeste 17 Noroeste 0 -- -- 81
2021-02-01 08:00:00 5.2 5 Oeste 27 Noroeste 0 -- -- 75
2021-02-01 07:00:00 5.3 9 Sudoeste 32 Noroeste 0 -- -- 78
2021-02-01 06:00:00 6.7 19 Norte 45 Norte 0 -- -- 73
2021-02-01 05:00:00 6.7 28 Norte 50 Norte 0 -- -- 76
2021-02-01 04:00:00 6.7 28 Norte 53 Norte 0 -- -- 77
2021-02-01 03:00:00 7 31 Norte 45 Norte 0 -- -- 77
2021-02-01 02:00:00 7.4 32 Norte 53 Norte 0 -- -- 77
2021-02-01 01:00:00 8 34 Norte 55 Norte 0 -- -- 76
2021-02-01 00:00:00 8.7 35 Norte 54 Norte 0 -- -- 75